Terminal Aerodrome Forecast
Issued by NWS

Home | Current Version | Previous Version | Text Only | Print | Product List | Glossary On
Versions: 1 2 3 4 5 6 7 8 9 10 11 12 13 14 15 16 17 18
354
FTUS42 TJSJ 262325
TAFJSJ
TAF
TJSJ 262325Z 2700/2724 12008KT P6SM FEW025 SCT040
     FM271300 13008KT P6SM SCT030 SCT050
     FM271630 14010KT P6SM VCTS SCT025CB BKN040
     FM272300 12008KT P6SM FEW025 SCT040=

USA.gov is the U.S. government's official web portal to all federal, state and local government web resources and services.